Aeroporto :
LOGIN :

Iscrizione | Disclaimer

   EN    FR    IT 

 










Sommario :    VFR   VFR Marginale   IFR   IFR Intensivo   IFR Molto Intensivo
Visibilità : 
Base nubi : 
>= 8 km
>= 3000ft
5 / 8 km
1000 / 3000 ft
1500m / 5 km
500 / 1000 ft
800 / 1500m
200 / 500 ft
< 800m
< 200 ft
Simboli :   Temporali  Nebbia  Neve Forte  Precipitazioni Forti  Vento > 20 kt
SIGMETs :   Varie  Temporali  Ghiacco  Turbolenza  Onda orograficha  Ceneri Vulcaniche






- Altitudine del aeroporto : 194 ft
- Codice IATA : IEG


EPZG - Zielona Gora Babimost

ULTIMO METAR :
  • 090630Z 08006KT 040V130 3000 -SN BR OVC007 M02/M03 Q1007

METARs OBSOLETI :
  • 090600Z 09006KT 060V120 3400 BR OVC007 M02/M03 Q1007
  • 090530Z 09009KT 040V120 3200 BR OVC006 M02/M03 Q1007
  • 090500Z 08007KT 040V110 2900 BR OVC006 M03/M03 Q1007
  • 090430Z 09008KT 060V120 3000 BR OVC006 M03/M03 Q1007
  • 090400Z 09010KT 060V120 2900 BR OVC006 M03/M03 Q1007

TAF TAF EPZG
Valido dal 09 a 06 ore il 09 a 15 ore UTC


090530Z 0906/0915 10008KT 4000 BR OVC007
TEMPO 0906/0911 2500 BR OVC004
BECMG 0911/0913 2500 -SN BR OVC003
PROB40
TEMPO 0913/0915 1200 SN



MetMap, La meteo Aeronautica in un colpo d'occhio ! - Copyright ORBIFLY Dicembre 2007 - Disclaimer

ORBIFLY MET'MAP TEAM :

Programmazione e sviluppo : Alexandra Zaïnal
Concezione : Baudouin d'Aumeries
Aiuto per la programmazione : Marc-Olivier Méhu
Supporto tecnico e logistico : Manuel Goepfert
Aiuto per la traduzione : Arnaldo La Scala

Contatto : metmap@orbifly.com




FONTI E CREDITI :

   NOAA